createdAt,value
2022-08-07T00:04:41.050Z,101881.29
2022-08-07T00:10:26.015Z,101884.28
2022-08-07T00:15:55.411Z,101887.11
2022-08-07T00:21:56.678Z,101888.01
2022-08-07T00:26:58.787Z,101892.60
2022-08-07T00:32:34.942Z,101895.30
2022-08-07T00:37:48.176Z,101887.46
2022-08-07T00:43:59.639Z,101893.20
2022-08-07T00:49:04.905Z,101895.63
2022-08-07T00:54:16.611Z,101897.92
2022-08-07T01:00:15.886Z,101898.54
2022-08-07T01:05:32.816Z,101898.96
2022-08-07T01:10:56.390Z,101896.98
2022-08-07T01:16:12.135Z,101894.45
2022-08-07T01:21:38.401Z,101893.75
2022-08-07T01:27:17.696Z,101884.77
2022-08-07T01:32:31.029Z,101884.53
2022-08-07T01:37:42.417Z,101885.31
2022-08-07T01:43:10.004Z,101884.48
2022-08-07T01:48:40.987Z,101889.82
2022-08-07T01:54:08.869Z,101886.20
2022-08-07T01:59:30.904Z,101892.44
2022-08-07T02:04:56.626Z,101897.47
2022-08-07T02:10:26.887Z,101896.52
2022-08-07T02:15:37.639Z,101897.33
2022-08-07T02:20:57.288Z,101897.30
2022-08-07T02:26:33.171Z,101897.03
2022-08-07T02:31:59.508Z,101894.58
2022-08-07T02:37:11.525Z,101896.48
2022-08-07T02:42:21.191Z,101894.14
2022-08-07T02:47:44.994Z,101898.74
2022-08-07T02:53:46.288Z,101903.20
2022-08-07T02:59:18.410Z,101905.95
2022-08-07T03:04:42.307Z,101902.47
2022-08-07T03:09:56.464Z,101904.27
2022-08-07T03:15:15.771Z,101901.55
2022-08-07T03:21:04.076Z,101904.67
2022-08-07T03:26:21.105Z,101901.76
2022-08-07T03:31:42.470Z,101904.17
2022-08-07T03:36:57.416Z,101902.23
2022-08-07T03:42:16.942Z,101896.36
2022-08-07T03:47:29.420Z,101900.23
2022-08-07T03:52:40.790Z,101900.77
2022-08-07T03:58:34.438Z,101903.10
2022-08-07T04:04:17.070Z,101900.17
2022-08-07T04:10:15.646Z,101903.31
2022-08-07T04:15:37.209Z,101906.08
2022-08-07T04:21:07.311Z,101910.60
2022-08-07T04:26:35.312Z,101911.83
2022-08-07T04:32:09.956Z,101914.73
2022-08-07T04:37:52.807Z,101917.48
2022-08-07T04:44:10.532Z,101912.23
2022-08-07T04:49:38.430Z,101916.50
2022-08-07T04:54:53.990Z,101918.06
2022-08-07T05:00:17.248Z,101923.36
2022-08-07T05:05:52.101Z,101927.27
2022-08-07T05:11:19.360Z,101923.35
2022-08-07T05:16:44.011Z,101923.10
2022-08-07T05:22:01.780Z,101930.38
2022-08-07T05:28:03.239Z,101930.70
2022-08-07T05:32:52.202Z,101930.48
2022-08-07T05:38:59.994Z,101932.73
2022-08-07T05:44:12.000Z,101936.92
2022-08-07T05:49:24.040Z,101931.30
2022-08-07T05:54:55.555Z,101934.08
2022-08-07T06:00:25.677Z,101934.63
2022-08-07T06:05:40.764Z,101932.30
2022-08-07T06:11:18.129Z,101929.38
2022-08-07T06:16:56.386Z,101930.61
2022-08-07T06:22:23.562Z,101928.77
2022-08-07T06:28:01.918Z,101930.45
2022-08-07T06:33:16.175Z,101933.05
2022-08-07T06:38:28.498Z,101935.63
2022-08-07T06:43:46.582Z,101934.41
2022-08-07T06:49:13.697Z,101939.02
2022-08-07T06:55:31.567Z,101939.65
2022-08-07T07:00:47.786Z,101939.29
2022-08-07T07:06:13.714Z,101946.72
2022-08-07T07:12:09.131Z,101941.73
2022-08-07T07:17:08.098Z,101953.16
2022-08-07T07:24:05.970Z,101950.05
2022-08-07T07:28:41.923Z,101946.25
2022-08-07T07:33:49.068Z,101941.48
2022-08-07T07:39:16.648Z,101934.38
2022-08-07T07:44:38.566Z,101939.42
2022-08-07T07:50:35.521Z,101935.35
2022-08-07T07:55:37.758Z,101927.89
2022-08-07T08:00:57.171Z,101928.08
2022-08-07T08:06:08.038Z,101930.30
2022-08-07T08:11:59.677Z,101928.60
2022-08-07T08:17:56.230Z,101919.63
2022-08-07T08:23:20.648Z,101923.02
2022-08-07T08:28:38.578Z,101925.33
2022-08-07T08:33:59.502Z,101932.17
2022-08-07T08:39:39.571Z,101929.02
2022-08-07T08:45:15.916Z,101924.59
2022-08-07T08:50:39.723Z,101918.26
2022-08-07T08:56:04.376Z,101915.35
2022-08-07T09:01:24.254Z,101917.47
2022-08-07T09:06:54.452Z,101918.73
2022-08-07T09:12:41.961Z,101925.53
2022-08-07T09:18:53.193Z,101922.09
2022-08-07T09:25:17.857Z,101921.77
2022-08-07T09:31:15.512Z,101915.36
2022-08-07T09:37:03.172Z,101905.20
2022-08-07T09:42:39.472Z,101893.77
2022-08-07T09:48:05.180Z,101884.52
2022-08-07T09:53:41.138Z,101885.33
2022-08-07T09:59:14.742Z,101883.16
2022-08-07T10:04:38.057Z,101877.09
2022-08-07T10:10:03.373Z,101872.59
2022-08-07T10:15:44.798Z,101861.39
2022-08-07T10:21:50.590Z,101860.73
2022-08-07T10:27:02.971Z,101857.98
2022-08-07T10:32:52.921Z,101850.90
2022-08-07T10:39:02.332Z,101850.52
2022-08-07T10:44:38.642Z,101848.85
2022-08-07T10:49:51.752Z,101847.35
2022-08-07T10:55:27.132Z,101850.77
2022-08-07T11:01:23.938Z,101847.70
2022-08-07T11:06:55.813Z,101845.30
2022-08-07T11:12:31.570Z,101841.06
2022-08-07T11:17:46.067Z,101838.10
2022-08-07T11:23:04.784Z,101832.48
2022-08-07T11:28:31.343Z,101830.64
2022-08-07T11:34:00.802Z,101824.58
2022-08-07T11:40:01.123Z,101820.89
2022-08-07T11:45:36.052Z,101813.62
2022-08-07T11:51:41.993Z,101811.20
2022-08-07T11:57:25.054Z,101802.30
2022-08-07T12:03:41.639Z,101796.02
2022-08-07T12:09:16.509Z,101792.65
2022-08-07T12:14:38.561Z,101790.11
2022-08-07T12:20:02.592Z,101783.98
2022-08-07T12:26:21.360Z,101778.59
2022-08-07T12:32:04.238Z,101770.09
2022-08-07T12:37:27.876Z,101767.36
2022-08-07T12:42:38.221Z,101770.17
2022-08-07T12:48:28.367Z,101770.32
2022-08-07T12:54:38.036Z,101765.55
2022-08-07T12:59:54.736Z,101761.16
2022-08-07T13:06:03.651Z,101761.11
2022-08-07T13:10:59.610Z,101750.29
2022-08-07T13:16:31.080Z,101740.52
2022-08-07T13:21:54.997Z,101733.40
2022-08-07T13:28:05.443Z,101736.59
2022-08-07T13:33:06.864Z,101731.89
2022-08-07T13:38:58.665Z,101728.20
2022-08-07T13:44:10.366Z,101729.94
2022-08-07T13:50:35.815Z,101722.49
2022-08-07T13:55:07.317Z,101722.10
2022-08-07T14:00:26.943Z,101719.08
2022-08-07T14:05:38.258Z,101721.10
2022-08-07T14:11:14.700Z,101719.31
2022-08-07T14:16:35.008Z,101716.90
2022-08-07T14:22:01.830Z,101716.90
2022-08-07T14:28:12.551Z,101715.69
2022-08-07T14:32:49.858Z,101713.59
2022-08-07T14:38:05.999Z,101708.09
2022-08-07T14:48:48.477Z,101701.00
2022-08-07T14:54:30.180Z,101699.05
2022-08-07T15:05:26.887Z,101695.14
2022-08-07T15:11:01.772Z,101695.79
2022-08-07T15:16:14.634Z,101692.98
2022-08-07T15:27:23.270Z,101683.92
2022-08-07T15:33:01.558Z,101683.29
2022-08-07T15:38:29.886Z,101678.16
2022-08-07T15:44:04.809Z,101676.70
2022-08-07T15:54:51.689Z,101663.80
2022-08-07T16:00:32.135Z,101661.99
2022-08-07T16:05:58.607Z,101658.86
2022-08-07T16:11:25.372Z,101656.04
2022-08-07T16:18:02.587Z,101651.04
2022-08-07T16:23:11.882Z,101649.05
2022-08-07T16:29:18.458Z,101646.59
2022-08-07T16:34:27.731Z,101643.36
2022-08-07T16:40:12.869Z,101642.04
2022-08-07T16:46:33.141Z,101635.08
2022-08-07T16:52:01.636Z,101630.42
2022-08-07T16:58:02.322Z,101630.09
2022-08-07T17:03:57.700Z,101626.45
2022-08-07T17:09:13.847Z,101621.77
2022-08-07T17:14:39.096Z,101622.41
2022-08-07T17:20:02.567Z,101626.20
2022-08-07T17:25:17.641Z,101622.44
2022-08-07T17:30:32.332Z,101626.32
2022-08-07T17:36:04.391Z,101627.38
2022-08-07T17:42:04.071Z,101625.52
2022-08-07T17:47:16.836Z,101627.09
2022-08-07T17:52:31.686Z,101624.85
2022-08-07T17:57:56.400Z,101633.27
2022-08-07T18:03:20.222Z,101631.38
2022-08-07T18:08:34.247Z,101636.80
2022-08-07T18:13:50.944Z,101635.84
2022-08-07T18:21:03.958Z,101642.45
2022-08-07T18:24:51.117Z,101642.89
2022-08-07T18:30:31.502Z,101646.17
2022-08-07T18:36:00.280Z,101648.23
2022-08-07T18:41:45.306Z,101655.38
2022-08-07T18:47:22.540Z,101662.02
2022-08-07T18:53:06.763Z,101667.14
2022-08-07T18:58:54.410Z,101666.25
2022-08-07T19:04:09.809Z,101670.41
2022-08-07T19:09:56.088Z,101671.73
2022-08-07T19:16:03.108Z,101675.17
2022-08-07T19:21:08.517Z,101672.54
2022-08-07T19:26:25.295Z,101678.59
2022-08-07T19:32:07.864Z,101681.48
2022-08-07T19:37:55.319Z,101686.95
2022-08-07T19:43:48.980Z,101692.20
2022-08-07T19:49:18.551Z,101699.86
2022-08-07T19:55:03.650Z,101696.57
2022-08-07T20:00:39.920Z,101702.05
2022-08-07T20:06:15.329Z,101703.83
2022-08-07T20:12:22.364Z,101711.95
2022-08-07T20:17:33.458Z,101714.84
2022-08-07T20:22:59.615Z,101715.60
2022-08-07T20:28:39.705Z,101721.86
2022-08-07T20:34:39.963Z,101726.44
2022-08-07T20:40:32.367Z,101732.54
2022-08-07T20:46:27.301Z,101737.98
2022-08-07T20:52:16.810Z,101739.61
2022-08-07T20:58:02.363Z,101742.30
2022-08-07T21:03:38.322Z,101743.23
2022-08-07T21:09:07.503Z,101735.53
2022-08-07T21:14:48.513Z,101728.89
2022-08-07T21:20:29.466Z,101725.80
2022-08-07T21:26:14.916Z,101729.18
2022-08-07T21:32:42.318Z,101730.98
2022-08-07T21:37:58.780Z,101732.94
2022-08-07T21:43:36.639Z,101735.17
2022-08-07T21:49:40.765Z,101739.30
2022-08-07T21:56:35.809Z,101737.22
2022-08-07T22:02:11.393Z,101735.73
2022-08-07T22:07:59.390Z,101735.37
2022-08-07T22:14:06.039Z,101737.66
2022-08-07T22:20:30.047Z,101739.36
2022-08-07T22:26:29.222Z,101742.77
2022-08-07T22:32:20.517Z,101745.35
2022-08-07T22:38:25.582Z,101744.52
2022-08-07T22:43:57.063Z,101743.80
2022-08-07T22:49:54.364Z,101745.09
2022-08-07T22:55:45.732Z,101740.05
2022-08-07T23:01:50.636Z,101736.25
2022-08-07T23:07:41.539Z,101731.87
2022-08-07T23:13:29.280Z,101741.91
2022-08-07T23:19:38.846Z,101746.11
2022-08-07T23:25:28.337Z,101741.92
2022-08-07T23:31:07.142Z,101742.39
2022-08-07T23:37:19.965Z,101740.34
2022-08-07T23:43:02.628Z,101730.66
2022-08-07T23:49:49.935Z,101727.02
2022-08-07T23:55:53.602Z,101730.89
